Time;durP1;ratioP1;P1;durP2;ratioP2;P2;SDS_P1;SDS_P2;PMS_P1;PMS_P2;Temp;Humidity;BMP_temperature;BMP_pressure;BME280_temperature;BME280_humidity;BME280_pressure;Samples;Min_cycle;Max_cycle;Signal;HPM_P1;HPM_P2
2023/03/16 00:00:36;;;;;;;0.30;0.30;;;;;;;5.72;58.32;101356.34;5134068;28;20051;-82
2023/03/16 00:03:06;;;;;;;0.40;0.40;;;;;;;5.77;58.57;101345.94;5161457;28;20030;-82
2023/03/16 00:05:37;;;;;;;1.00;0.90;;;;;;;5.73;58.77;101347.69;5130623;28;20098;-82
2023/03/16 00:08:08;;;;;;;0.35;0.35;;;;;;;5.69;58.63;101348.56;5125121;28;20057;-80
2023/03/16 00:10:38;;;;;;;0.70;0.70;;;;;;;5.73;58.62;101344.22;5146717;28;20072;-80
2023/03/16 00:13:08;;;;;;;0.82;0.82;;;;;;;5.74;58.40;101330.34;5141717;28;20042;-81
2023/03/16 00:15:40;;;;;;;0.50;0.50;;;;;;;5.66;58.83;101332.91;5130207;28;20517;-81
2023/03/16 00:18:10;;;;;;;0.30;0.30;;;;;;;5.69;58.69;101327.72;5157644;28;20038;-81
2023/03/16 00:20:41;;;;;;;0.40;0.40;;;;;;;5.63;59.16;101315.56;5142300;28;20323;-81
2023/03/16 00:23:11;;;;;;;0.90;0.55;;;;;;;5.73;58.14;101320.78;5141832;28;20097;-81
2023/03/16 00:25:42;;;;;;;0.30;0.30;;;;;;;5.47;58.81;101313.75;5134213;28;20493;-81
2023/03/16 00:28:12;;;;;;;2.00;1.05;;;;;;;5.58;58.44;101309.44;5148378;28;20035;-81
2023/03/16 00:30:46;;;;;;;0.25;0.25;;;;;;;5.61;58.57;101314.66;5132353;28;20038;-81
2023/03/16 00:33:17;;;;;;;0.38;0.38;;;;;;;5.61;58.96;101314.66;5131570;28;20043;-81
2023/03/16 00:35:50;;;;;;;0.40;0.40;;;;;;;5.49;58.56;101314.66;5129991;28;20101;-80
2023/03/16 00:38:20;;;;;;;0.40;0.40;;;;;;;5.59;59.00;101319.00;5133739;28;20029;-81
2023/03/16 00:40:52;;;;;;;0.30;0.30;;;;;;;5.62;58.54;101321.63;5135453;28;20690;-81
2023/03/16 00:43:26;;;;;;;0.40;0.40;;;;;;;5.64;58.47;101319.91;5129765;28;21832;-81
2023/03/16 00:45:58;;;;;;;0.30;0.30;;;;;;;5.65;58.88;101325.97;5127046;28;20046;-81
2023/03/16 00:48:28;;;;;;;0.40;0.40;;;;;;;5.63;59.04;101320.75;5147520;28;20034;-83
2023/03/16 00:51:05;;;;;;;0.52;0.52;;;;;;;5.64;58.84;101319.00;5109980;28;20046;-81
2023/03/16 00:53:35;;;;;;;0.35;0.35;;;;;;;5.62;58.68;101310.34;5149410;28;20065;-82
2023/03/16 00:56:07;;;;;;;0.40;0.40;;;;;;;5.59;59.07;101316.38;5153850;28;20694;-81
2023/03/16 00:58:42;;;;;;;0.30;0.30;;;;;;;5.72;58.80;101301.66;5150115;28;20058;-81
2023/03/16 01:01:18;;;;;;;0.30;0.30;;;;;;;5.65;58.47;101300.81;5145688;28;20145;-85
2023/03/16 01:03:48;;;;;;;0.40;0.40;;;;;;;5.45;59.10;101299.88;5157021;28;20065;-81
2023/03/16 01:06:19;;;;;;;0.40;0.40;;;;;;;5.39;59.16;101286.84;5129985;28;20065;-82
2023/03/16 01:08:51;;;;;;;0.40;0.40;;;;;;;5.45;59.57;101298.16;5130754;28;20031;-82
2023/03/16 01:11:22;;;;;;;0.52;0.52;;;;;;;5.57;59.32;101294.72;5127351;28;20043;-82
2023/03/16 01:13:53;;;;;;;0.35;0.35;;;;;;;5.49;58.84;101281.66;5128769;28;20031;-82
2023/03/16 01:16:23;;;;;;;0.60;0.60;;;;;;;5.42;58.95;101266.91;5124131;28;20221;-81
2023/03/16 01:18:56;;;;;;;3.60;1.10;;;;;;;5.43;59.82;101270.34;5129570;28;20490;-82
2023/03/16 01:21:27;;;;;;;0.43;0.43;;;;;;;5.35;59.54;101267.75;5163221;28;20050;-81
2023/03/16 01:23:57;;;;;;;0.38;0.38;;;;;;;5.42;59.82;101273.81;5147382;28;20031;-81
2023/03/16 01:26:28;;;;;;;0.40;0.40;;;;;;;5.53;59.63;101269.53;5145662;28;20042;-81
2023/03/16 01:28:58;;;;;;;0.30;0.30;;;;;;;5.41;59.49;101269.50;5127271;28;20039;-82
2023/03/16 01:31:30;;;;;;;0.30;0.30;;;;;;;5.35;59.78;101268.59;5143220;28;20035;-82
2023/03/16 01:34:02;;;;;;;0.68;0.68;;;;;;;5.21;59.84;101262.47;5144843;28;20047;-81
2023/03/16 01:36:33;;;;;;;0.35;0.35;;;;;;;5.44;59.65;101252.16;5128806;28;20101;-82
2023/03/16 01:39:05;;;;;;;0.30;0.30;;;;;;;5.43;59.46;101245.22;5150885;28;20452;-82
2023/03/16 01:41:36;;;;;;;0.30;0.30;;;;;;;5.43;59.66;101242.63;5123373;28;20493;-81
2023/03/16 01:44:17;;;;;;;0.40;0.40;;;;;;;5.37;60.21;101237.41;5130067;28;20035;-82
2023/03/16 01:46:47;;;;;;;0.50;0.50;;;;;;;5.46;59.76;101236.53;5149914;28;20527;-81
2023/03/16 01:49:28;;;;;;;0.47;0.47;;;;;;;5.18;60.11;101226.03;5145317;28;20042;-82
2023/03/16 01:52:05;;;;;;;0.95;0.95;;;;;;;5.31;60.33;101227.84;5140922;28;20581;-82
2023/03/16 01:54:39;;;;;;;1.40;0.85;;;;;;;5.42;60.14;101226.97;5143639;28;20617;-82
2023/03/16 01:57:29;;;;;;;0.30;0.30;;;;;;;5.33;60.13;101226.09;5159253;28;20130;-82
2023/03/16 02:00:17;;;;;;;0.30;0.30;;;;;;;5.35;59.88;101224.38;5130942;28;20045;-82
2023/03/16 02:02:54;;;;;;;0.47;0.47;;;;;;;5.35;60.17;101237.38;5127611;28;20035;-81
2023/03/16 02:05:32;;;;;;;0.40;0.40;;;;;;;5.34;59.91;101243.44;5145824;28;20046;-81
2023/03/16 02:08:04;;;;;;;0.38;0.38;;;;;;;5.19;60.69;101233.00;5152640;28;20133;-81
2023/03/16 02:10:36;;;;;;;0.28;0.28;;;;;;;5.19;60.38;101236.47;5130673;28;20035;-82
2023/03/16 02:13:06;;;;;;;0.30;0.30;;;;;;;5.25;60.32;101227.78;5163036;28;20067;-82
2023/03/16 02:15:38;;;;;;;0.30;0.30;;;;;;;5.46;59.88;101229.59;5144980;28;20031;-82
2023/03/16 02:18:08;;;;;;;0.30;0.30;;;;;;;5.51;60.12;101219.19;5171249;28;20057;-81
2023/03/16 02:20:45;;;;;;;0.30;0.30;;;;;;;5.33;59.90;101215.69;5175388;28;20098;-81
2023/03/16 02:23:19;;;;;;;0.70;0.70;;;;;;;5.15;60.37;101206.09;5153409;28;20715;-81
2023/03/16 02:26:01;;;;;;;0.40;0.40;;;;;;;5.26;60.46;101205.25;5147282;28;20034;-81
2023/03/16 02:28:47;;;;;;;0.30;0.30;;;;;;;5.37;60.61;101211.38;5150595;28;20771;-82
2023/03/16 02:31:19;;;;;;;1.10;1.05;;;;;;;5.43;60.54;101190.56;5146013;28;20076;-81
2023/03/16 02:33:52;;;;;;;0.30;0.30;;;;;;;5.22;60.88;101190.50;5132963;28;20121;-82
2023/03/16 02:36:23;;;;;;;;;;;;;;;5.32;60.26;101171.44;5125998;28;20118;-81
2023/03/16 02:38:53;;;;;;;0.50;0.50;;;;;;;5.41;60.01;101181.88;5118454;28;19922;-81
2023/03/16 02:41:24;;;;;;;0.82;0.82;;;;;;;5.35;59.93;101182.72;5131659;28;20085;-81
2023/03/16 02:44:00;;;;;;;0.30;0.30;;;;;;;5.35;60.21;101172.31;5135224;28;20861;-82
2023/03/16 02:46:34;;;;;;;0.30;0.30;;;;;;;5.36;60.39;101170.59;5108769;28;20143;-81
2023/03/16 02:49:24;;;;;;;1.13;0.93;;;;;;;5.38;60.26;101181.84;5152007;28;20033;-81
2023/03/16 02:51:56;;;;;;;0.28;0.28;;;;;;;5.36;60.18;101171.44;5123287;28;20034;-81
2023/03/16 02:54:26;;;;;;;0.30;0.30;;;;;;;5.24;60.88;101171.44;5117321;28;20141;-81
2023/03/16 02:56:57;;;;;;;0.30;0.30;;;;;;;5.31;60.34;101173.19;5148630;28;20113;-81
2023/03/16 02:59:28;;;;;;;2.10;1.23;;;;;;;5.30;60.87;101179.25;5165356;28;20046;-82
2023/03/16 03:01:58;;;;;;;0.80;0.80;;;;;;;5.42;60.39;101161.91;5138819;28;20073;-82
2023/03/16 03:04:29;;;;;;;0.30;0.30;;;;;;;5.30;60.63;101153.25;5112122;28;20663;-81
2023/03/16 03:07:03;;;;;;;0.30;0.30;;;;;;;5.21;60.65;101161.03;5133995;28;20050;-82
2023/03/16 03:09:34;;;;;;;0.30;0.30;;;;;;;5.23;60.22;101156.69;5132569;28;20026;-82
2023/03/16 03:12:05;;;;;;;0.82;0.82;;;;;;;5.09;61.17;101156.66;5126738;28;20393;-82
2023/03/16 03:14:36;;;;;;;0.43;0.43;;;;;;;5.18;60.55;101142.78;5129748;28;20699;-82
2023/03/16 03:17:08;;;;;;;0.35;0.35;;;;;;;5.26;60.81;101146.28;5121875;28;20490;-82
2023/03/16 03:19:39;;;;;;;0.50;0.50;;;;;;;5.20;59.97;101146.28;5149649;28;20062;-82
2023/03/16 03:22:10;;;;;;;0.45;0.45;;;;;;;5.12;61.04;101148.00;5129459;28;20062;-82
2023/03/16 03:24:40;;;;;;;0.63;0.63;;;;;;;5.25;60.25;101144.53;5145843;28;20662;-82
2023/03/16 03:27:10;;;;;;;0.68;0.68;;;;;;;5.39;60.21;101146.31;5144974;28;20031;-82
2023/03/16 03:29:41;;;;;;;0.30;0.30;;;;;;;5.23;60.58;101135.88;5143018;28;22915;-82
2023/03/16 03:32:12;;;;;;;0.65;0.65;;;;;;;5.09;60.34;101134.97;5136183;28;20026;-82
2023/03/16 03:34:42;;;;;;;0.40;0.40;;;;;;;5.13;60.33;101144.53;5128598;28;20047;-81
2023/03/16 03:37:13;;;;;;;0.30;0.30;;;;;;;4.90;61.14;101137.53;5130546;28;20038;-82
2023/03/16 03:39:44;;;;;;;0.30;0.30;;;;;;;5.08;60.95;101138.47;5145687;28;20053;-82
2023/03/16 03:42:14;;;;;;;0.52;0.52;;;;;;;5.15;60.36;101142.81;5138550;28;20122;-82
2023/03/16 03:44:47;;;;;;;0.30;0.30;;;;;;;5.20;61.28;101147.16;5137007;28;20127;-83
2023/03/16 03:47:18;;;;;;;0.40;0.40;;;;;;;5.10;61.26;101139.31;5139670;28;20038;-82
2023/03/16 03:49:49;;;;;;;4.03;1.13;;;;;;;5.17;60.83;101143.66;5133148;28;20334;-82
2023/03/16 03:52:19;;;;;;;0.30;0.30;;;;;;;5.28;60.89;101148.91;5154164;28;20082;-82
2023/03/16 03:54:50;;;;;;;14.85;1.38;;;;;;;5.15;60.51;101142.81;5144562;28;20101;-82
2023/03/16 03:57:21;;;;;;;0.50;0.50;;;;;;;5.06;61.39;101148.84;5129222;28;20034;-82
2023/03/16 03:59:51;;;;;;;0.40;0.40;;;;;;;5.16;61.10;101147.16;5145833;28;20122;-82
2023/03/16 04:02:22;;;;;;;1.35;0.82;;;;;;;5.20;60.91;101141.06;5127994;28;20066;-82
2023/03/16 04:04:52;;;;;;;0.40;0.40;;;;;;;5.03;61.74;101139.31;5138443;28;20047;-82
2023/03/16 04:07:23;;;;;;;0.30;0.30;;;;;;;5.29;60.55;101143.69;5133319;28;20046;-81
2023/03/16 04:09:53;;;;;;;0.93;0.93;;;;;;;5.24;60.82;101141.94;5141556;28;20138;-81
2023/03/16 04:12:24;;;;;;;0.50;0.50;;;;;;;5.33;61.12;101137.59;5160018;28;20027;-81
2023/03/16 04:14:54;;;;;;;10.80;1.23;;;;;;;5.33;60.40;101142.81;5132203;28;20043;-81
2023/03/16 04:17:25;;;;;;;0.50;0.50;;;;;;;5.18;60.70;101142.78;5143935;28;20038;-81
2023/03/16 04:19:56;;;;;;;0.30;0.30;;;;;;;5.27;60.62;101141.97;5124597;28;20110;-80
2023/03/16 04:22:29;;;;;;;0.40;0.40;;;;;;;5.25;61.49;101138.47;5128193;28;20027;-80
2023/03/16 04:25:01;;;;;;;0.85;0.85;;;;;;;5.10;61.03;101137.59;5127975;28;20042;-81
2023/03/16 04:27:35;;;;;;;0.93;0.93;;;;;;;5.30;60.76;101129.81;5131077;28;20656;-79
2023/03/16 04:30:10;;;;;;;0.52;0.52;;;;;;;5.30;60.38;101127.22;5131705;28;20472;-81
2023/03/16 04:32:40;;;;;;;0.30;0.30;;;;;;;5.24;60.93;101119.41;5146410;28;20035;-81
2023/03/16 04:35:11;;;;;;;0.40;0.40;;;;;;;5.30;60.87;101114.22;5130317;28;20046;-81
2023/03/16 04:37:41;;;;;;;0.50;0.50;;;;;;;5.35;60.47;101114.22;5131607;28;20034;-82
2023/03/16 04:40:15;;;;;;;0.75;0.75;;;;;;;5.31;61.02;101108.16;5131650;28;20035;-80
2023/03/16 04:42:46;;;;;;;2.92;1.55;;;;;;;5.31;60.75;101113.34;5152769;28;20035;-81
2023/03/16 04:45:17;;;;;;;0.30;0.30;;;;;;;5.31;61.00;101113.34;5126611;28;20440;-81
2023/03/16 04:47:48;;;;;;;0.40;0.40;;;;;;;5.21;61.24;101109.00;5135497;28;20041;-81
2023/03/16 04:50:19;;;;;;;0.35;0.35;;;;;;;5.25;61.43;101108.13;5133451;28;20505;-81
2023/03/16 04:52:50;;;;;;;0.68;0.68;;;;;;;5.13;61.63;101095.09;5132038;28;20101;-81
2023/03/16 04:55:21;;;;;;;0.30;0.30;;;;;;;5.03;61.53;101097.69;5118059;28;20031;-81
2023/03/16 04:57:52;;;;;;;0.40;0.40;;;;;;;5.17;61.26;101094.22;5148440;28;20030;-81
2023/03/16 05:00:22;;;;;;;0.30;0.30;;;;;;;5.13;61.58;101095.09;5126930;28;20402;-81
2023/03/16 05:02:53;;;;;;;0.30;0.30;;;;;;;5.16;61.16;101095.97;5163868;28;20062;-82
2023/03/16 05:05:23;;;;;;;0.30;0.30;;;;;;;5.20;61.04;101094.25;5148615;28;20042;-82
2023/03/16 05:07:54;;;;;;;0.30;0.30;;;;;;;5.07;61.58;101087.31;5129263;28;20037;-82
2023/03/16 05:10:25;;;;;;;1.42;1.33;;;;;;;5.12;61.47;101098.56;5128987;28;20034;-83
2023/03/16 05:12:55;;;;;;;0.40;0.40;;;;;;;5.08;61.83;101094.25;5149196;28;20023;-83
2023/03/16 05:15:26;;;;;;;0.30;0.30;;;;;;;5.04;61.65;101095.97;5154645;28;20085;-82
2023/03/16 05:17:56;;;;;;;0.30;0.30;;;;;;;5.11;61.24;101096.81;5139653;28;20037;-82
2023/03/16 05:20:27;;;;;;;1.55;1.25;;;;;;;5.09;61.34;101096.84;5147085;28;20519;-82
2023/03/16 05:22:58;;;;;;;0.30;0.30;;;;;;;5.12;61.71;101093.38;5116473;28;20057;-82
2023/03/16 05:25:28;;;;;;;0.40;0.40;;;;;;;4.94;62.18;101096.81;5133171;28;20038;-82
2023/03/16 05:28:01;;;;;;;0.40;0.40;;;;;;;4.95;62.11;101094.19;5135785;28;20038;-83
2023/03/16 05:30:32;;;;;;;0.45;0.45;;;;;;;5.14;61.61;101099.44;5148342;28;20034;-82
2023/03/16 05:33:03;;;;;;;0.77;0.77;;;;;;;5.13;61.49;101092.50;5148719;28;20090;-82
2023/03/16 05:35:39;;;;;;;0.52;0.52;;;;;;;5.19;61.61;101092.50;5153732;28;20057;-84
2023/03/16 05:38:10;;;;;;;0.40;0.40;;;;;;;5.20;61.52;101089.03;5157900;28;20035;-82
2023/03/16 05:40:41;;;;;;;0.60;0.60;;;;;;;5.18;61.96;101091.66;5146598;28;20137;-83
2023/03/16 05:43:12;;;;;;;0.40;0.40;;;;;;;5.30;61.67;101090.78;5128253;28;20033;-83
2023/03/16 05:45:42;;;;;;;0.75;0.75;;;;;;;5.28;61.28;101095.13;5130202;28;20435;-83
2023/03/16 05:48:14;;;;;;;0.20;0.20;;;;;;;5.30;61.76;101089.91;5148555;28;20030;-82
2023/03/16 05:50:44;;;;;;;0.40;0.40;;;;;;;5.22;61.75;101092.50;5121510;28;20031;-81
2023/03/16 05:53:15;;;;;;;0.52;0.52;;;;;;;5.24;61.52;101089.91;5148104;28;20034;-82
2023/03/16 05:55:51;;;;;;;0.70;0.70;;;;;;;5.30;61.51;101106.41;5142217;28;20038;-81
2023/03/16 05:58:22;;;;;;;0.30;0.30;;;;;;;5.24;61.80;101098.59;5132801;28;20662;-82
2023/03/16 06:00:54;;;;;;;0.40;0.40;;;;;;;5.18;61.76;101098.56;5140868;28;20049;-80
2023/03/16 06:03:24;;;;;;;0.73;0.73;;;;;;;5.24;61.66;101101.19;5128420;28;20039;-81
2023/03/16 06:05:55;;;;;;;0.40;0.40;;;;;;;5.29;61.45;101099.47;5129681;28;20038;-81
2023/03/16 06:08:25;;;;;;;0.50;0.50;;;;;;;5.07;62.30;101098.56;5111597;28;20030;-80
2023/03/16 06:10:56;;;;;;;0.40;0.40;;;;;;;5.24;61.89;101101.19;5133384;28;20039;-81
2023/03/16 06:13:26;;;;;;;24.45;1.60;;;;;;;5.22;62.40;101102.94;5123446;28;20446;-81
2023/03/16 06:15:57;;;;;;;1.35;1.25;;;;;;;5.23;62.16;101104.66;5149219;28;20039;-81
2023/03/16 06:18:27;;;;;;;1.42;0.93;;;;;;;5.30;61.89;101111.59;5143422;28;20458;-81
2023/03/16 06:20:58;;;;;;;0.45;0.45;;;;;;;5.19;62.55;101106.41;5111661;28;20638;-81
2023/03/16 06:23:28;;;;;;;2.13;1.40;;;;;;;5.08;63.54;101102.91;5154353;28;20023;-82
2023/03/16 06:25:59;;;;;;;0.30;0.30;;;;;;;5.08;63.06;101104.66;5121762;28;20043;-82
2023/03/16 06:28:30;;;;;;;0.30;0.30;;;;;;;5.13;63.05;101108.09;5124884;28;20050;-81
2023/03/16 06:31:00;;;;;;;0.40;0.40;;;;;;;5.19;62.82;101111.59;5146000;28;20031;-82
2023/03/16 06:33:31;;;;;;;10.73;1.10;;;;;;;5.30;62.62;101106.41;5108845;28;20023;-81
2023/03/16 06:36:02;;;;;;;0.30;0.30;;;;;;;5.17;63.01;101102.03;5158953;28;20035;-81
2023/03/16 06:38:32;;;;;;;0.30;0.30;;;;;;;5.12;63.55;101108.97;5137134;28;20051;-81
2023/03/16 06:41:03;;;;;;;0.30;0.30;;;;;;;5.26;62.66;101112.44;5142400;28;20121;-80
2023/03/16 06:43:33;;;;;;;0.30;0.30;;;;;;;5.12;64.09;101112.47;5122795;28;20975;-81
2023/03/16 06:46:04;;;;;;;0.60;0.60;;;;;;;5.17;63.84;101109.84;5160364;28;20130;-81
2023/03/16 06:48:35;;;;;;;0.38;0.38;;;;;;;5.14;63.91;101117.66;5142992;28;20062;-82
2023/03/16 06:51:06;;;;;;;0.30;0.30;;;;;;;5.22;63.56;101113.34;5147412;28;20035;-83
2023/03/16 06:53:37;;;;;;;0.40;0.40;;;;;;;5.18;64.08;101116.78;5132813;28;20031;-81
2023/03/16 06:56:07;;;;;;;0.40;0.40;;;;;;;5.21;63.65;101114.19;5143530;28;20031;-82
2023/03/16 06:58:37;;;;;;;0.30;0.30;;;;;;;5.31;63.58;101121.16;5168063;28;20046;-82
2023/03/16 07:01:08;;;;;;;0.65;0.65;;;;;;;5.23;63.74;101124.59;5188830;28;20034;-82
2023/03/16 07:03:38;;;;;;;0.47;0.47;;;;;;;5.27;63.76;101124.59;5151873;28;20011;-81
2023/03/16 07:06:09;;;;;;;1.02;1.02;;;;;;;5.33;63.34;101123.75;5163709;28;20486;-82
2023/03/16 07:08:39;;;;;;;2.22;1.85;;;;;;;5.34;63.48;101130.69;5130154;28;20030;-82
2023/03/16 07:11:10;;;;;;;0.47;0.47;;;;;;;5.38;63.67;101135.00;5145147;28;20050;-81
2023/03/16 07:13:41;;;;;;;1.67;1.58;;;;;;;5.37;64.05;101133.31;5152643;28;20035;-82
2023/03/16 07:16:11;;;;;;;0.40;0.40;;;;;;;5.36;64.25;101129.81;5124617;28;20045;-81
2023/03/16 07:18:43;;;;;;;0.50;0.50;;;;;;;5.36;64.53;101141.97;5142651;28;20623;-82
2023/03/16 07:21:13;;;;;;;0.30;0.30;;;;;;;5.51;64.33;101135.91;5142503;28;20078;-81
2023/03/16 07:23:44;;;;;;;0.30;0.30;;;;;;;5.47;63.65;101147.19;5131985;28;20084;-81
2023/03/16 07:26:18;;;;;;;0.40;0.40;;;;;;;5.51;63.98;101138.50;5125756;28;20526;-81
2023/03/16 07:28:48;;;;;;;;;;;;;;;5.53;63.75;101136.78;5111032;28;20089;-81
2023/03/16 07:31:19;;;;;;;0.47;0.47;;;;;;;5.55;64.49;101134.16;5145629;28;19950;-82
2023/03/16 07:33:49;;;;;;;0.40;0.40;;;;;;;5.58;63.69;101134.16;5113644;28;20072;-81
2023/03/16 07:36:20;;;;;;;0.45;0.45;;;;;;;5.58;64.07;101126.38;5130060;28;20049;-82
2023/03/16 07:38:50;;;;;;;0.88;0.88;;;;;;;5.57;64.02;101135.91;5140807;28;20248;-81
2023/03/16 07:41:21;;;;;;;0.40;0.40;;;;;;;5.57;63.59;101138.53;5142482;28;20050;-81
2023/03/16 07:43:52;;;;;;;0.40;0.40;;;;;;;5.62;64.11;101133.31;5116092;28;20025;-81
2023/03/16 07:46:23;;;;;;;0.30;0.30;;;;;;;5.58;64.01;101134.16;5107747;28;20051;-82
2023/03/16 07:48:54;;;;;;;0.30;0.30;;;;;;;5.64;64.09;101127.25;5133057;28;20035;-81
2023/03/16 07:51:24;;;;;;;0.20;0.20;;;;;;;5.70;63.78;101120.28;5117995;28;20031;-82
2023/03/16 07:53:55;;;;;;;1.65;1.33;;;;;;;5.74;63.61;101116.81;5154225;28;20113;-81
2023/03/16 07:56:25;;;;;;;0.40;0.40;;;;;;;5.74;63.58;101112.47;5157192;28;20046;-81
2023/03/16 07:58:56;;;;;;;1.35;1.15;;;;;;;5.89;64.28;101109.00;5146613;28;20069;-81
2023/03/16 08:01:27;;;;;;;0.30;0.30;;;;;;;5.83;64.29;101111.59;5145556;28;20103;-81
2023/03/16 08:03:57;;;;;;;0.68;0.68;;;;;;;5.81;64.12;101118.56;5138681;28;20121;-82
2023/03/16 08:06:28;;;;;;;0.30;0.30;;;;;;;5.83;63.44;101132.41;5161915;28;20501;-81
2023/03/16 08:08:59;;;;;;;0.40;0.40;;;;;;;5.92;63.46;101111.56;5137557;28;20038;-81
2023/03/16 08:11:29;;;;;;;0.28;0.28;;;;;;;5.93;63.38;101122.88;5148983;28;20098;-81
2023/03/16 08:14:00;;;;;;;2.47;1.05;;;;;;;6.05;63.88;101122.88;5150835;28;20094;-79
2023/03/16 08:16:30;;;;;;;0.63;0.63;;;;;;;5.98;63.68;101121.13;5159429;28;20565;-79
2023/03/16 08:19:02;;;;;;;0.40;0.40;;;;;;;6.03;63.71;101119.44;5146764;28;20103;-79
2023/03/16 08:21:33;;;;;;;0.43;0.43;;;;;;;6.10;64.15;101109.84;5165280;28;20042;-79
2023/03/16 08:24:03;;;;;;;0.40;0.40;;;;;;;6.24;64.03;101110.66;5175007;28;20027;-80
2023/03/16 08:26:35;;;;;;;0.30;0.30;;;;;;;6.22;64.22;101109.81;5122320;28;20050;-81
2023/03/16 08:29:06;;;;;;;0.75;0.75;;;;;;;6.14;64.28;101111.59;5147836;28;20034;-80
2023/03/16 08:31:36;;;;;;;0.73;0.73;;;;;;;6.19;64.62;101120.25;5132265;28;20042;-81
2023/03/16 08:34:07;;;;;;;0.30;0.30;;;;;;;6.28;64.69;101117.63;5147088;28;20053;-81
2023/03/16 08:36:38;;;;;;;0.45;0.45;;;;;;;6.24;64.91;101115.88;5116916;28;20026;-81
2023/03/16 08:39:08;;;;;;;0.32;0.32;;;;;;;6.31;64.64;101114.13;5151258;28;20513;-80
2023/03/16 08:41:40;;;;;;;0.57;0.57;;;;;;;6.44;64.55;101108.03;5149702;28;20089;-80
2023/03/16 08:44:11;;;;;;;0.60;0.60;;;;;;;6.45;64.66;101104.50;5137360;28;20032;-81
2023/03/16 08:46:43;;;;;;;0.60;0.60;;;;;;;6.38;65.31;101107.16;5110572;28;20059;-81
2023/03/16 08:49:14;;;;;;;0.57;0.57;;;;;;;6.42;64.88;101112.38;5144624;28;20033;-81
2023/03/16 08:51:45;;;;;;;0.35;0.35;;;;;;;6.52;65.32;101113.19;5146655;28;20042;-81
2023/03/16 08:54:15;;;;;;;0.30;0.30;;;;;;;6.49;64.84;101115.78;5148580;28;20054;-80
2023/03/16 08:56:46;;;;;;;0.88;0.88;;;;;;;6.63;64.97;101105.31;5127820;28;20054;-80
2023/03/16 08:59:17;;;;;;;0.30;0.30;;;;;;;6.68;64.60;101103.56;5133820;28;20111;-80
2023/03/16 09:01:47;;;;;;;0.40;0.40;;;;;;;6.69;64.92;101120.06;5130607;28;20050;-81
2023/03/16 09:04:20;;;;;;;1.17;1.15;;;;;;;6.81;64.76;101114.81;5134459;28;20184;-82
2023/03/16 09:06:50;;;;;;;0.35;0.35;;;;;;;6.76;64.82;101114.84;5132800;28;20035;-82
2023/03/16 09:09:21;;;;;;;0.75;0.45;;;;;;;6.84;64.62;101112.16;5133666;28;20537;-83
2023/03/16 09:11:52;;;;;;;0.50;0.50;;;;;;;6.86;65.13;101106.97;5132107;28;20125;-82
2023/03/16 09:14:23;;;;;;;0.20;0.20;;;;;;;6.92;65.81;101101.69;5133467;28;20709;-82
2023/03/16 09:16:53;;;;;;;0.60;0.60;;;;;;;6.93;65.13;101093.84;5149025;28;20022;-82
2023/03/16 09:19:24;;;;;;;0.30;0.30;;;;;;;7.02;64.51;101089.47;5146445;28;20045;-83
2023/03/16 09:21:54;;;;;;;0.32;0.32;;;;;;;7.11;64.54;101083.31;5130994;28;20031;-82
2023/03/16 09:24:25;;;;;;;0.30;0.30;;;;;;;7.05;64.63;101077.25;5135341;28;20027;-82
2023/03/16 09:26:56;;;;;;;0.52;0.52;;;;;;;7.17;64.60;101071.09;5149547;28;20090;-83
2023/03/16 09:29:26;;;;;;;0.40;0.40;;;;;;;7.18;64.38;101075.44;5125035;28;20105;-83
2023/03/16 09:31:59;;;;;;;0.60;0.60;;;;;;;7.27;64.50;101060.56;5153563;28;20129;-83
2023/03/16 09:34:29;;;;;;;0.50;0.50;;;;;;;7.29;64.31;101064.06;5137484;28;20027;-83
2023/03/16 09:37:01;;;;;;;0.50;0.50;;;;;;;7.25;63.96;101064.06;5124629;28;20022;-82
2023/03/16 09:39:32;;;;;;;0.38;0.38;;;;;;;7.17;64.11;101059.78;5143441;28;20038;-81
2023/03/16 09:42:15;;;;;;;0.38;0.38;;;;;;;7.36;63.29;101063.13;5140888;28;20027;-83
2023/03/16 09:45:05;;;;;;;0.40;0.40;;;;;;;7.42;63.73;101055.22;5120705;28;20129;-82
2023/03/16 09:47:37;;;;;;;0.98;0.98;;;;;;;7.39;63.27;101052.66;5134625;28;20438;-81
2023/03/16 09:50:15;;;;;;;1.95;1.17;;;;;;;7.47;63.49;101058.69;5153655;28;20051;-81
2023/03/16 09:52:54;;;;;;;0.30;0.30;;;;;;;7.48;63.13;101057.78;5154579;28;20026;-83
2023/03/16 09:55:34;;;;;;;0.50;0.50;;;;;;;7.35;62.85;101053.53;5108388;28;20047;-83
2023/03/16 09:58:14;;;;;;;0.95;0.95;;;;;;;7.34;62.86;101052.69;5132035;28;20106;-83
2023/03/16 10:01:13;;;;;;;2.13;2.03;;;;;;;7.41;63.51;101048.25;5147934;28;20035;-82
2023/03/16 10:04:08;;;;;;;1.05;0.57;;;;;;;7.59;62.96;101043.75;5146430;28;20027;-82
2023/03/16 10:06:54;;;;;;;0.50;0.50;;;;;;;7.56;62.69;101037.69;5126656;28;20053;-82
2023/03/16 10:09:46;;;;;;;0.30;0.30;;;;;;;7.66;62.78;101034.97;5130283;28;20038;-82
2023/03/16 10:12:18;;;;;;;0.35;0.35;;;;;;;7.74;62.93;101046.22;5130675;28;20023;-83
2023/03/16 10:15:04;;;;;;;0.30;0.30;;;;;;;7.84;62.18;101041.78;5168918;28;20042;-82
2023/03/16 10:17:40;;;;;;;0.22;0.22;;;;;;;7.85;62.61;101039.16;5131359;28;20023;-81
2023/03/16 10:20:21;;;;;;;0.93;0.90;;;;;;;7.76;62.02;101028.78;5129171;28;20039;-82
2023/03/16 10:22:53;;;;;;;0.32;0.32;;;;;;;7.91;61.87;101034.72;5130210;28;20065;-82
2023/03/16 10:25:41;;;;;;;0.50;0.50;;;;;;;7.95;61.50;101034.69;5126945;28;20038;-82
2023/03/16 10:28:18;;;;;;;0.30;0.30;;;;;;;8.01;61.70;101044.19;5131875;28;20038;-82
2023/03/16 10:30:53;;;;;;;0.52;0.52;;;;;;;8.07;62.02;101038.91;5148628;28;20113;-82
2023/03/16 10:33:27;;;;;;;0.57;0.57;;;;;;;8.12;61.47;101028.38;5134785;28;20035;-81
2023/03/16 10:36:19;;;;;;;0.40;0.40;;;;;;;8.19;60.81;101016.97;5138774;28;20038;-80
2023/03/16 10:38:50;;;;;;;2.90;2.15;;;;;;;8.19;60.22;101012.63;5150438;28;20041;-80
2023/03/16 10:41:26;;;;;;;0.40;0.40;;;;;;;8.36;61.39;101006.31;5150214;28;20048;-80
2023/03/16 10:44:11;;;;;;;0.35;0.35;;;;;;;8.40;60.36;101010.59;5153659;28;20094;-80
2023/03/16 10:46:47;;;;;;;0.70;0.70;;;;;;;8.42;60.80;100989.69;5135932;28;20058;-80
2023/03/16 10:49:28;;;;;;;0.65;0.65;;;;;;;8.42;60.40;100992.31;5149825;28;20041;-81
2023/03/16 10:52:03;;;;;;;0.30;0.30;;;;;;;8.45;60.39;100989.63;5150432;28;20050;-81
2023/03/16 10:54:38;;;;;;;0.20;0.20;;;;;;;8.55;60.45;100990.41;5133714;28;20027;-80
2023/03/16 10:57:19;;;;;;;0.50;0.50;;;;;;;8.63;59.72;100978.09;5113251;28;20049;-81
2023/03/16 10:59:58;;;;;;;0.30;0.30;;;;;;;8.68;59.64;100978.03;5154577;28;20065;-81
2023/03/16 11:02:31;;;;;;;0.70;0.70;;;;;;;8.62;60.31;100978.97;5145860;28;20034;-81
2023/03/16 11:05:11;;;;;;;0.38;0.38;;;;;;;8.64;60.17;100982.41;5128342;28;20039;-81
2023/03/16 11:08:20;;;;;;;0.40;0.40;;;;;;;8.71;59.46;100978.84;5131946;28;20664;-81
2023/03/16 11:10:57;;;;;;;0.60;0.60;;;;;;;8.76;59.75;100977.00;5132983;28;20042;-81
2023/03/16 11:13:33;;;;;;;0.40;0.40;;;;;;;8.81;58.89;100972.56;5131180;28;20022;-82
2023/03/16 11:16:49;;;;;;;4.53;1.02;;;;;;;8.88;58.24;100978.56;5135275;28;20043;-83
2023/03/16 11:19:33;;;;;;;0.40;0.40;;;;;;;8.83;56.76;100962.09;5161077;28;20728;-82
2023/03/16 11:22:16;;;;;;;2.75;2.03;;;;;;;8.89;56.46;100946.28;5135183;28;20100;-82
2023/03/16 11:25:08;;;;;;;0.85;0.35;;;;;;;9.02;57.21;100943.44;5147263;28;20049;-82
2023/03/16 11:27:48;;;;;;;0.38;0.38;;;;;;;9.04;56.88;100950.41;5144914;28;20035;-82
2023/03/16 11:30:35;;;;;;;0.30;0.30;;;;;;;9.06;56.79;100948.59;5126010;28;20110;-82
2023/03/16 11:33:10;;;;;;;3.95;1.10;;;;;;;9.13;55.54;100938.88;5152335;28;20105;-81
2023/03/16 11:35:50;;;;;;;0.20;0.20;;;;;;;9.13;56.21;100931.88;5113386;28;20057;-82
2023/03/16 11:38:38;;;;;;;0.75;0.70;;;;;;;9.25;56.49;100930.84;5136782;28;20057;-81
2023/03/16 11:41:22;;;;;;;0.30;0.30;;;;;;;9.34;56.60;100921.94;5147357;28;20132;-83
2023/03/16 11:44:21;;;;;;;0.30;0.30;;;;;;;9.36;56.22;100928.00;5168388;28;20398;-83
2023/03/16 11:47:20;;;;;;;0.40;0.40;;;;;;;9.50;55.96;100925.13;5173158;28;20070;-84
2023/03/16 11:50:43;;;;;;;0.30;0.30;;;;;;;9.59;56.04;100905.75;5170086;28;20066;-83
2023/03/16 11:53:41;;;;;;;0.30;0.30;;;;;;;9.76;55.22;100902.75;5125187;28;20142;-83
2023/03/16 11:56:26;;;;;;;0.32;0.32;;;;;;;9.96;55.83;100898.88;5153698;28;20051;-83
2023/03/16 11:59:15;;;;;;;0.30;0.30;;;;;;;10.03;55.04;100901.34;5158153;28;20486;-83
2023/03/16 12:02:13;;;;;;;0.30;0.30;;;;;;;10.02;54.34;100889.13;5150191;28;20050;-82
2023/03/16 12:04:55;;;;;;;0.38;0.30;;;;;;;10.10;53.93;100885.47;5124989;28;20042;-83